Latest Weather Observations for Thredbo Top Station

IDN60801

Issued at 7:32 am EST Tuesday 21 May 2019 (issued every 10 minutes, with the page automatically refreshed every 10 minutes)

About weather observations | Map of weather stations | Latest weather observations for NSW | Other Formats
Station Details ID: 071032 Name: THREDBO AWS Lat: -36.49 Lon: 148.29 Height: 1957.0 m
Data from the previous 72 hours. | See also: Recent months at Thredbo Top Station
Date/Time
EST
Temp
°C
App
Temp
°C
Dew
Point
°C
Rel
Hum
%
Delta-T
°C
Wind Press
QNH
hPa
Press
MSL
hPa
Rain since
9am
mm
Dir  Spd
km/h
Gust
km/h
Spd
kts
Gust
kts
21/07:30am 5.7 -9.8 5.4 98 0.1 NW 76 95 41 51 1022.2 1022.0 3.0
21/07:05am 5.3 -9.1 5.0 98 0.1 NW 70 96 38 52 1022.8 1022.6 3.0
21/07:00am 5.2 -9.2 4.9 98 0.1 NW 70 85 38 46 1022.9 1022.8 3.0
21/06:30am 5.0 -10.6 4.7 98 0.1 NW 76 98 41 53 1022.3 1022.1 3.0
21/06:23am 5.3 -8.9 5.0 98 0.1 NW 69 98 37 53 1021.8 1021.6 3.0
21/06:00am 5.1 -6.3 4.8 98 0.1 NW 54 74 29 40 1023.5 1023.4 3.0
21/05:30am 5.1 -6.3 4.8 98 0.1 NW 54 72 29 39 1023.6 1023.5 3.0
21/05:00am 5.0 -5.3 4.7 98 0.1 NW 48 74 26 40 1023.3 1023.2 3.0
21/04:30am 4.7 -5.3 4.4 98 0.1 NW 46 67 25 36 1023.9 1023.8 3.0
21/04:00am 4.9 -6.2 4.6 98 0.1 NW 52 80 28 43 1023.9 1023.8 3.0
21/03:55am 5.0 -6.8 4.7 98 0.1 NW 56 80 30 43 1024.2 1024.2 3.0
21/03:53am 5.0 -7.4 4.7 98 0.1 NW 59 80 32 43 1023.6 1023.5 3.0
21/03:51am 5.1 -6.9 4.8 98 0.1 NW 57 80 31 43 1022.9 1022.8 3.0
21/03:30am 5.0 -4.9 4.7 98 0.1 NW 46 69 25 37 1023.3 1023.2 3.0
21/03:00am 4.8 -6.7 4.5 98 0.1 NW 54 76 29 41 1023.3 1023.2 2.8
21/02:30am 4.5 -6.7 4.2 98 0.1 NW 52 72 28 39 1023.3 1023.2 2.8
21/02:01am 4.6 -7.9 4.3 98 0.1 NW 59 78 32 42 1023.1 1023.0 2.8
21/02:00am 4.6 -8.2 4.3 98 0.1 NW 61 78 33 42 1023.0 1022.9 2.8
21/01:32am 4.4 -8.5 4.1 98 0.1 NW 61 87 33 47 1022.5 1022.4 2.8
21/01:30am 4.4 -8.1 4.1 98 0.1 NW 59 74 32 40 1022.7 1022.5 2.8
21/01:00am 4.5 -8.4 4.2 98 0.1 NW 61 80 33 43 1023.1 1023.0 2.2
21/12:30am 4.8 -7.6 4.5 98 0.1 NW 59 82 32 44 1023.4 1023.3 1.6
21/12:00am 4.9 -8.3 4.6 98 0.1 NW 63 85 34 46 1023.1 1023.0 1.6
 
Date/Time
EST
Temp
°C
App
Temp
°C
Dew
Point
°C
Rel
Hum
%
Delta-T
°C
Wind Press
QNH
hPa
Press
MSL
hPa
Rain since
9am
mm
Dir  Spd
km/h
Gust
km/h
Spd
kts
Gust
kts
20/11:54pm 4.9 -7.9 4.6 98 0.1 NW 61 85 33 46 1023.0 1022.9 1.6
20/11:30pm 4.9 -5.0 4.6 98 0.1 NW 46 65 25 35 1024.3 1024.3 1.6
20/11:00pm 5.0 -4.4 4.7 98 0.1 NW 43 61 23 33 1025.0 1024.9 1.6
20/10:30pm 5.0 -4.0 4.7 98 0.1 NW 41 72 22 39 1025.4 1025.4 1.6
20/10:00pm 5.1 -4.2 4.8 98 0.1 NW 43 65 23 35 1025.2 1025.2 1.4
20/09:54pm 5.1 -3.9 4.8 98 0.1 NW 41 65 22 35 1025.0 1024.9 1.4
20/09:48pm 5.0 -4.0 4.7 98 0.1 NW 41 59 22 32 1025.4 1025.4 1.4
20/09:30pm 4.9 -6.9 4.6 98 0.1 NW 56 76 30 41 1024.0 1023.9 0.6
20/09:00pm 4.9 -6.9 4.6 98 0.1 NW 56 76 30 41 1024.6 1024.5 0.4
20/08:30pm 5.1 -8.4 4.8 98 0.1 NW 65 85 35 46 1023.4 1023.3 0.0
20/08:00pm 5.3 -8.2 5.0 98 0.1 NW 65 89 35 48 1023.3 1023.2 0.0
20/07:41pm 5.3 -8.9 5.0 98 0.1 NW 69 89 37 48 1022.5 1022.4 0.0
20/07:30pm 5.2 -9.1 4.9 98 0.1 NW 69 85 37 46 1022.7 1022.5 0.0
20/07:00pm 5.1 -8.4 4.8 98 0.1 NW 65 93 35 50 1022.9 1022.8 0.0
20/06:37pm 5.3 -7.4 4.9 97 0.2 NW 61 83 33 45 1023.3 1023.2 0.0
20/06:30pm 5.2 -6.8 4.8 97 0.2 NNW 57 72 31 39 1024.0 1023.9 0.0
20/06:25pm 5.3 -6.1 4.9 97 0.2 NW 54 72 29 39 1024.0 1023.9 0.0
20/06:00pm 5.0 -6.8 4.6 97 0.2 NW 56 70 30 38 1024.2 1024.2 0.0
20/05:30pm 5.0 -7.0 4.6 97 0.2 NW 57 69 31 37 1023.6 1023.5 0.0
20/05:13pm 5.2 -5.8 4.8 97 0.2 NW 52 70 28 38 1024.2 1024.2 0.0
20/05:00pm 5.1 -6.7 4.7 97 0.2 NW 56 70 30 38 1024.1 1024.0 0.0
20/04:39pm 5.0 -6.5 4.6 97 0.2 NW 54 72 29 39 1024.3 1024.3 0.0
20/04:30pm 5.0 -6.5 4.6 97 0.2 NW 54 67 29 36 1024.1 1024.0 0.0
20/04:25pm 4.9 -6.2 4.6 98 0.1 NW 52 65 28 35 1024.1 1024.0 0.0
20/04:05pm 4.8 -3.4 4.5 98 0.1 NW 37 56 20 30 1025.3 1025.3 0.0
20/04:00pm 4.7 -3.6 4.4 98 0.1 NW 37 54 20 29 1025.3 1025.3 0.0
20/03:30pm 4.7 -5.7 4.4 98 0.1 NW 48 61 26 33 1024.7 1024.7 0.0
20/03:00pm 4.8 -7.1 4.4 97 0.2 NW 56 70 30 38 1024.5 1024.4 0.0
20/02:30pm 4.7 -7.9 3.5 92 0.6 NW 59 69 32 37 1024.5 1024.4 0.0
20/02:00pm 4.7 -8.4 3.2 90 0.7 NW 61 76 33 41 1024.1 1024.0 0.0
20/01:30pm 5.6 -8.1 3.9 89 0.8 NW 65 76 35 41 1023.9 1023.8 0.0
20/01:00pm 5.6 -7.7 4.1 90 0.7 NW 63 76 34 41 1024.0 1023.9 0.0
20/12:37pm 5.9 -6.0 4.2 89 0.8 NW 56 74 30 40 1024.3 1024.3 0.0
20/12:30pm 5.0 -7.0 4.0 93 0.5 NW 56 72 30 39 1024.7 1024.7 0.0
20/12:00pm 6.4 -4.3 4.7 89 0.8 NW 50 67 27 36 1025.6 1025.6 0.0
20/11:30am 5.3 -5.8 4.7 96 0.3 NW 52 61 28 33 1026.3 1026.3 0.0
20/11:00am 4.8 -7.1 4.4 97 0.2 NW 56 67 30 36 1026.3 1026.3 0.0
20/10:34am 5.0 -5.0 4.4 96 0.3 NW 46 67 25 36 1026.7 1026.7 0.0
20/10:30am 5.0 -4.9 4.6 97 0.2 NW 46 61 25 33 1026.9 1027.0 0.0
20/10:00am 4.8 -4.6 4.5 98 0.1 NW 43 59 23 32 1027.4 1027.5 0.0
20/09:53am 4.4 -4.7 4.1 98 0.1 NW 41 59 22 32 1027.7 1027.8 0.0
20/09:30am 3.9 -6.2 3.6 98 0.1 NW 46 57 25 31 1027.6 1027.7 0.0
20/09:00am 4.1 -5.0 3.8 98 0.1 NW 41 59 22 32 1027.4 1027.5 0.0
20/08:39am 3.9 -5.3 3.6 98 0.1 NW 41 59 22 32 1027.4 1027.5 0.0
20/08:30am 4.0 -6.5 3.7 98 0.1 NW 48 61 26 33 1027.6 1027.7 0.0
20/08:16am 4.0 -6.1 3.7 98 0.1 NW 46 65 25 35 1027.6 1027.7 0.0
20/08:00am 4.0 -6.9 3.7 98 0.1 NW 50 65 27 35 1027.3 1027.3 0.0
20/07:30am 4.2 -5.9 3.8 97 0.2 NW 46 61 25 33 1027.3 1027.3 0.0
20/07:00am 4.1 -7.2 3.7 97 0.2 NW 52 70 28 38 1026.7 1026.7 0.0
20/06:56am 4.0 -6.9 3.6 97 0.2 NW 50 70 27 38 1026.5 1026.6 0.0
20/06:30am 4.0 -7.3 3.6 97 0.2 NW 52 67 28 36 1026.2 1026.2 0.0
20/06:00am 3.7 -5.9 3.3 97 0.2 NW 43 59 23 32 1026.5 1026.6 0.0
20/05:32am 3.7 -6.5 3.3 97 0.2 NW 46 65 25 35 1026.3 1026.3 0.0
20/05:30am 3.6 -6.6 3.2 97 0.2 NW 46 61 25 33 1026.5 1026.6 0.0
20/05:00am 3.6 -7.4 3.2 97 0.2 NW 50 69 27 37 1026.3 1026.3 0.0
20/04:48am 3.5 -7.9 3.1 97 0.2 NW 52 70 28 38 1025.9 1025.9 0.0
20/04:30am 3.5 -7.5 3.1 97 0.2 NW 50 67 27 36 1025.9 1025.9 0.0
20/04:18am 3.5 -7.5 3.1 97 0.2 NW 50 69 27 37 1025.9 1025.9 0.0
20/04:00am 3.7 -8.6 3.3 97 0.2 NW 57 69 31 37 1025.6 1025.6 0.0
20/03:35am 3.7 -6.5 3.3 97 0.2 NW 46 67 25 36 1026.3 1026.3 0.0
20/03:30am 3.7 -5.5 3.3 97 0.2 NW 41 57 22 31 1026.7 1026.7 0.0
20/03:24am 3.6 -5.3 3.2 97 0.2 NW 39 57 21 31 1027.1 1027.2 0.0
20/03:00am 3.7 -5.9 3.3 97 0.2 NW 43 54 23 29 1027.3 1027.3 0.0
20/02:30am 3.7 -6.1 3.1 96 0.3 NW 44 57 24 31 1027.5 1027.6 0.0
20/02:00am 3.6 -7.1 2.7 94 0.4 NW 48 65 26 35 1027.1 1027.2 0.0
20/01:30am 3.5 -7.2 2.8 95 0.3 NNW 48 61 26 33 1027.1 1027.2 0.0
20/01:00am 3.3 -8.9 2.7 96 0.3 NNW 56 67 30 36 1026.9 1027.0 0.0
20/12:30am 3.4 -8.4 2.7 95 0.3 NW 54 61 29 33 1027.9 1028.0 0.0
20/12:00am 3.4 -7.3 2.7 95 0.3 NNW 48 57 26 31 1028.2 1028.3 0.0
 
Date/Time
EST
Temp
°C
App
Temp
°C
Dew
Point
°C
Rel
Hum
%
Delta-T
°C
Wind Press
QNH
hPa
Press
MSL
hPa
Rain since
9am
mm
Dir  Spd
km/h
Gust
km/h
Spd
kts
Gust
kts
19/11:30pm 2.8 -5.8 2.4 97 0.2 N 37 46 20 25 1029.1 1029.2 0.0
19/11:00pm 2.9 -6.1 2.3 96 0.3 N 39 48 21 26 1029.2 1029.4 0.0
19/10:30pm 2.6 -6.9 2.0 96 0.3 N 41 48 22 26 1029.6 1029.7 0.0
19/10:00pm 2.6 -6.2 1.4 92 0.5 N 37 48 20 26 1029.7 1029.9 0.0
19/09:30pm 2.2 -5.8 1.5 95 0.3 NNW 33 41 18 22 1029.8 1030.0 0.0
19/09:00pm 2.4 -5.5 2.0 97 0.2 NNW 33 43 18 23 1030.0 1030.3 0.0
19/08:30pm 2.8 -5.5 2.1 95 0.3 NNW 35 44 19 24 1030.0 1030.3 0.0
19/08:00pm 2.8 -3.9 1.3 90 0.7 NNW 26 35 14 19 1030.3 1030.5 0.0
19/07:30pm 2.5 -3.1 0.9 89 0.7 N 20 26 11 14 1030.4 1030.6 0.0
19/07:00pm 1.1 -2.4 -2.6 76 1.5 NNW 6 17 3 9 1030.6 1030.9 0.0
19/06:30pm 2.7 -0.2 -1.3 75 1.6 NNW 4 13 2 7 1030.5 1030.8 0.0
19/06:00pm 2.6 -2.6 -0.2 82 1.2 NNW 17 22 9 12 1030.0 1030.3 0.0
19/05:30pm 1.9 -3.3 0.1 88 0.8 NNW 17 28 9 15 1030.0 1030.3 0.0
19/05:00pm 2.7 -0.9 0.6 86 0.9 NNW 9 11 5 6 1030.6 1030.9 0.0
19/04:30pm 4.4 0.1 0.7 77 1.6 NNW 13 17 7 9 1030.5 1030.8 0.0
19/04:00pm 5.0 1.7 0.0 70 2.2 NW 7 11 4 6 1030.6 1030.9 0.0
19/03:30pm 7.5 2.3 0.3 60 3.2 NNW 17 24 9 13 1030.6 1030.9 0.0
19/03:00pm 6.1 1.4 1.1 70 2.2 NW 15 22 8 12 1030.6 1030.9 0.0
19/02:30pm 5.8 -1.3 1.5 74 1.9 NW 28 33 15 18 1030.5 1030.8 0.0
19/02:00pm 7.5 1.5 -1.4 53 3.8 NNW 20 24 11 13 1030.5 1030.8 0.0
19/01:30pm 9.1 4.4 -1.6 47 4.7 N 13 22 7 12 1030.9 1031.1 0.0
19/01:00pm 8.6 1.2 -7.1 32 5.9 NNW 24 32 13 17 1031.0 1031.3 0.0
19/12:30pm 9.2 2.9 -4.4 38 5.5 NNW 20 32 11 17 1031.5 1031.8 0.0
19/12:00pm 8.8 1.1 -11.2 23 6.9 NW 24 30 13 16 1032.0 1032.3 0.0
19/11:30am 9.8 2.4 -7.4 29 6.6 NNW 24 32 13 17 1032.3 1032.7 0.0
19/11:00am 8.9 1.2 -6.1 34 5.8 N 26 33 14 18 1032.7 1033.0 0.0
19/10:30am 7.7 -0.2 -5.0 40 5.0 N 28 32 15 17 1032.7 1033.0 0.0
19/10:00am 7.6 -0.2 -8.0 32 5.7 N 26 33 14 18 1032.8 1033.2 0.0
19/09:30am 7.5 -0.1 -10.3 27 6.2 NNW 24 35 13 19 1032.9 1033.3 0.0
19/09:00am 5.0 -2.4 -7.8 39 4.5 NNW 24 30 13 16 1033.2 1033.5 0.0
19/08:30am 5.3 -2.3 -10.0 32 5.2 NNW 24 30 13 16 1033.1 1033.4 0.0
19/08:00am 4.8 -3.2 -9.7 34 5.2 NNW 26 30 14 16 1032.9 1033.3 0.0
19/07:30am 4.3 -3.7 -10.5 33 5.2 NNW 26 32 14 17 1032.9 1033.3 0.0
19/07:00am 2.3 -4.8 -8.7 44 3.8 NNW 22 26 12 14 1032.7 1033.0 0.0
19/06:30am 2.4 -5.6 -6.2 53 3.2 NNW 28 32 15 17 1032.7 1033.0 0.0
19/06:00am 1.3 -6.3 -9.3 45 3.5 NNW 24 30 13 16 1032.5 1032.8 0.0
19/05:30am 1.8 -4.9 -10.3 40 4.0 NW 19 24 10 13 1032.5 1032.8 0.0
19/05:00am 1.0 -5.3 -10.1 43 3.6 NNW 17 22 9 12 1032.5 1032.8 0.0
19/04:30am 4.0 -2.4 -11.6 31 5.2 NNW 17 20 9 11 1032.3 1032.7 0.0
19/04:00am 2.7 -3.3 -11.6 34 4.6 NW 15 19 8 10 1032.3 1032.7 0.0
19/03:30am 2.0 -4.4 -11.5 36 4.4 NW 17 19 9 10 1032.2 1032.5 0.0
19/03:00am 1.5 -5.4 -10.9 39 4.0 NNW 20 24 11 13 1032.2 1032.5 0.0
19/02:30am 1.0 -6.7 -10.7 41 3.8 NNW 24 28 13 15 1032.3 1032.7 0.0
19/02:00am 1.9 -6.5 -10.6 39 4.1 NNW 28 32 15 17 1032.3 1032.7 0.0
19/01:30am 2.0 -6.4 -9.8 41 4.0 NNW 28 33 15 18 1032.5 1032.8 0.0
19/01:00am 1.5 -6.7 -8.0 49 3.3 NNW 28 32 15 17 1032.8 1033.2 0.0
19/12:30am 1.4 -6.3 -6.4 56 2.9 NNW 26 30 14 16 1032.8 1033.2 0.0
19/12:00am 1.0 -7.3 -8.5 49 3.2 NNW 28 30 15 16 1032.6 1032.9 0.0
 
Date/Time
EST
Temp
°C
App
Temp
°C
Dew
Point
°C
Rel
Hum
%
Delta-T
°C
Wind Press
QNH
hPa
Press
MSL
hPa
Rain since
9am
mm
Dir  Spd
km/h
Gust
km/h
Spd
kts
Gust
kts
18/11:30pm 1.9 -6.5 -5.5 58 2.8 NNW 30 33 16 18 1032.5 1032.8 0.0
18/11:00pm 1.0 -6.8 -3.8 70 1.9 NNW 28 33 15 18 1032.8 1033.2 0.0
18/10:30pm 3.1 -2.6 -3.9 60 2.7 N 17 19 9 10 1033.6 1033.9 0.0
18/10:00pm 0.7 -4.6 -3.6 73 1.7 N 15 19 8 10 1033.8 1034.2 0.0
18/09:30pm 0.4 -5.7 -4.0 72 1.7 NNW 19 20 10 11 1033.7 1034.1 0.0
18/09:00pm 1.6 -3.3 -3.5 69 2.0 N 13 15 7 8 1033.9 1034.3 0.0
18/08:30pm 0.9 -5.2 -3.6 72 1.8 NNW 19 22 10 12 1033.6 1033.9 0.0
18/08:00pm 1.1 -5.7 -5.1 63 2.3 NNW 22 26 12 14 1032.8 1033.2 0.0
18/07:30pm 0.5 -4.9 -4.3 70 1.8 NNW 15 17 8 9 1032.8 1033.2 0.0
18/07:00pm 0.5 -5.3 -4.3 70 1.8 NNW 17 22 9 12 1032.7 1033.0 0.0
18/06:30pm 1.4 -4.9 -4.0 67 2.1 NNW 20 22 11 12 1032.3 1032.7 0.0
18/06:00pm 1.9 -3.8 -4.0 65 2.3 NNW 17 19 9 10 1032.2 1032.5 0.0
18/05:30pm 1.6 -3.4 -4.5 64 2.4 N 13 15 7 8 1032.2 1032.5 0.0
18/05:00pm 4.4 -0.5 -3.6 56 3.1 NNE 13 17 7 9 1032.2 1032.5 0.0
18/04:30pm 4.8 0.1 -5.0 49 3.8 NNE 11 13 6 7 1032.3 1032.7 0.0
18/04:00pm 8.2 4.9 -4.2 41 5.0 ENE 4 6 2 3 1032.3 1032.7 0.0
18/03:30pm 8.4 5.3 -2.8 45 4.7 SE 4 4 2 2 1032.2 1032.5 0.0
18/03:00pm 9.4 6.4 -2.2 44 4.9 ESE 4 6 2 3 1032.1 1032.4 0.0
18/02:30pm 10.3 7.2 -2.4 41 5.5 SE 4 6 2 3 1032.1 1032.4 0.0
18/02:00pm 10.0 6.5 -6.3 31 6.4 SSE 4 6 2 3 1032.5 1032.8 0.0
18/01:30pm 10.5 7.0 -6.3 30 6.7 N 4 9 2 5 1032.5 1032.8 0.0
18/01:00pm 11.0 6.9 -8.2 25 7.3 NNE 6 9 3 5 1032.5 1032.8 0.0
18/12:30pm 10.1 5.9 -7.6 28 6.8 ENE 7 11 4 6 1032.8 1033.2 0.0
18/12:00pm 10.8 7.3 -6.1 30 6.7 N 4 11 2 6 1033.3 1033.7 0.0
18/11:30am 10.6 7.0 -7.6 27 7.0 W 4 7 2 4 1033.7 1034.1 0.0
18/11:00am 10.0 5.6 -9.6 24 7.1 NW 7 13 4 7 1033.8 1034.2 0.0
18/10:30am 8.8 4.7 -8.7 28 6.4 SSE 6 7 3 4 1033.8 1034.2 0.0
18/10:00am 9.1 5.8 -8.4 28 6.4 ESE 2 6 1 3 1033.7 1034.1 0.0
18/09:30am 8.4 5.0 -9.5 27 6.4 S 2 4 1 2 1033.6 1033.9 0.0
18/09:00am 8.5 5.1 -9.4 27 6.4 N 2 4 1 2 1033.4 1033.8 0.0
18/08:30am 6.4 2.3 -8.7 33 5.4 NW 6 6 3 3 1033.2 1033.5 0.0
18/08:00am 3.5 -0.8 -9.5 38 4.5 WNW 7 9 4 5 1032.9 1033.3 0.0

Other formats

Comma delimited format used in spreadsheet applications
http://www.bom.gov.au/fwo/IDN60801/IDN60801.95909.axf

JavaScript Object Notation format (JSON) in row-major order
http://www.bom.gov.au/fwo/IDN60801/IDN60801.95909.json

Data quality

Most of these data are generated automatically and are frequently updated. Quality checks on data are not normally performed. It is possible for incorrect values to appear. Refer to information at About Latest Weather Observations and please check the disclaimer before using these data.